Williamsport Regional Airport
KIPT : now visible

Airfield :











YOU CAN JOIN US ON...

 
LOGIN :

Register | Disclaimer

   EN    FR    IT 

 









Legend :    VFR   Marginal VFR   IFR   Intensive IFR   Very Intensive IFR
Visi :
Ceiling :
>= 8 km
>= 3000ft
5 to 8 km
1000 to 3000 ft
1500m to 5 km
500 to 1000 ft
800 to 1500m
200 to 500 ft
< 800m
< 200 ft
Symbols :   Thunderstorms  Fog  Heavy snow  Heavy precipitations  Wind > 20 kt






- Airport Elevation : 529 ft
- IATA code : IPT


KIPT - Williamsport Regional

CURRENT METAR :
  • 230805Z AUTO 28003KT 2SM RA BR FEW004 OVC009 21/20 A2994 RMK AO2 P0004 T02060200

EXPIRED METARs :
  • 230754Z AUTO 35004KT 2 1/2SM RA BR OVC010 21/20 A2994 RMK AO2 RAB07 CIG 006V014 SLP135 P0008 T02060200
  • 230730Z AUTO 02003KT 4SM -RA BR BKN015 BKN029 OVC038 21/20 A2994 RMK AO2 RAB07 P0006 T02110200
  • 230654Z AUTO 15007KT 10SM OVC060 22/19 A2993 RMK AO2 SLP131 T02220194
  • 230638Z AUTO 14008KT 10SM SCT018 OVC060 22/20 A2993 RMK AO2 T02170200
  • 230616Z AUTO 08006KT 10SM SCT016 BKN021 OVC080 21/20 A2993 RMK AO2 T02110200
  • 230554Z AUTO 07006KT 9SM FEW021 BKN070 OVC085 21/20 A2993 RMK AO2 RAE25B37E46 SLP133 P0003 60026 T02110200 10222 20211 56016
  • 230530Z AUTO 08005KT 8SM SCT024 BKN033 OVC065 21/20 A2994 RMK AO2 RAE25 P0003 T02110200
  • 230453Z AUTO 09004KT 3SM -RA BR FEW012 BKN022 OVC029 21/20 A2995 RMK AO2 RAE0358B16 SLP139 P0014 T02110200 402780167
  • 230354Z AUTO 04004KT 7SM -RA FEW023 BKN060 OVC085 21/20 A2996 RMK AO2 RAB35 SLP141 P0002 T02110200
  • 230342Z AUTO 05003KT 6SM -RA BR FEW023 BKN060 OVC070 22/20 A2997 RMK AO2 RAB35 P0001 T02170200

TAF KIPT
Valid from the 23 at 06:00 until the 24 at 06:00 UTC


230530Z 2306/2406 00000KT 2SM -SHRA BR BKN007 OVC015
FM231000 VRB03KT 1SM BR OVC004
FM231200 27006KT 4SM BR OVC007
FM231300 26006KT 6SM BR BKN015
FM231500 27006KT P6SM BKN035
FM232000 25004KT P6SM VCSH FEW050 BKN250
FM240200 20003KT P6SM VCSH BKN050 OVC080
KZNY FIR / North America



MET'MAP, your aeronautical weather chart ! - Copyright ORBIFLY December 2007 - Disclaimer

ORBIFLY MET'MAP TEAM :

Programming & Development : Alexandra Zaïnal
Original concept : Baudouin d'Aumeries
Technical & hardware support : Manuel Goepfert
Assistance : Marc-Olivier Méhu




SOURCES & CREDITS :

   NOAA       Earth
Advisory